Tropical Cyclones
[Index]
Main Index Home Page Stock Weather Photos Extreme Storms Discussion Storm News and Storm Chasing Reports Tropical Cyclones / Hurricanes / Typhoons Weather Data and Links Wild Fires / Bushfires Weather Observation Techniques Weather Picture Catalogue Tornado Pictures and Reports Stock Video Footage and DVDs for sale
Season 2005-2006 Tropical Cyclone ELIA Track Map
Season 2005-2006 Summaries: [BoM-AU] [JTWC-AU] [JTWC-SIO] [JTWC-SPAC] [JTWC-SH]
<<- Previous TC | JTWC 2005-2006 Season | Next TC ->>

click for intensity scale information  Lat/long Grid: Show Hide

 Date Labels: Show Hide

Joint Typhoon Warning Centre Cyclone Data

Name: ELIA

03 Apr 2006 12:00 UTC to 16 Apr 2006 12:00 UTC

    date/time    lat    long     hPa   cat  kts
2006-04-03 12    8.4    86.5    1006         15          
2006-04-03 18    8.3    86.7    1006         15          
2006-04-04 00    8.2    86.8    1006         15          
2006-04-04 06    8.1    86.9    1004         20          
2006-04-04 12    7.9    87.0    1002         25          
2006-04-04 18    7.7    86.8    1002         25          
2006-04-05 00    7.5    86.6    1002         25          
2006-04-05 06    7.3    86.5    1002         25          
2006-04-05 12    7.0    86.4    1002         25          
2006-04-05 18    6.8    86.1    1002         25          
2006-04-06 00    6.9    85.7    1002         25          
2006-04-06 06    7.0    85.3    1002         25          
2006-04-06 12    7.4    85.4    1002         25          
2006-04-06 18    7.5    85.9    1002         25          
2006-04-07 00    7.4    86.6    1002         25          
2006-04-07 06    7.6    87.5    1002         25          
2006-04-07 12    8.2    88.3    1002         25          
2006-04-07 18    8.5    89.5    1004         25          
2006-04-08 00    8.6    90.7    1004         25          
2006-04-08 06    8.7    92.1    1004         25          
2006-04-08 12    8.7    93.5    1004         25          
2006-04-08 18    8.5    94.7    1004         25          
2006-04-09 00    8.4    95.6    1002         25          
2006-04-09 06    8.6    96.3    1002         25          
2006-04-09 12    9.1    96.1    1002         25          
2006-04-09 18    9.0    95.6    1000         30          
2006-04-10 00    9.2    95.2    1000         30          
2006-04-10 06    9.6    95.0    1000         30          
2006-04-10 12    9.9    95.3    1000         30          
2006-04-10 18   10.4    95.0    1000         30          
2006-04-11 00   10.9    94.7    1000         30          
2006-04-11 06   11.1    93.9    1000         30          
2006-04-11 12   11.3    93.0    1000         30          
2006-04-11 18   11.6    92.4    1000         30          
2006-04-12 00   12.1    91.9    1000         30          
2006-04-12 06   12.4    91.3    1000         30          
2006-04-12 12   12.8    90.9     997         35          
2006-04-12 18   13.0    90.4     997         35          
2006-04-13 00   13.2    90.1     994    1    40          
2006-04-13 06   13.3    89.8     991    1    45          
2006-04-13 12   13.3    89.5     991    1    45          
2006-04-13 18   13.5    89.3     991    1    45          
2006-04-14 00   13.8    89.1     991    1    45          
2006-04-14 06   14.2    88.7     987    1    50          
2006-04-14 12   14.6    88.2     985    1    50          
2006-04-14 12   14.6    88.2     985    1    50          
2006-04-14 18   14.9    87.5     985    1    50          
2006-04-14 18   14.9    87.5     985    1    50          
2006-04-15 00   15.1    86.8     991    1    45          
2006-04-15 06   15.2    86.1     997         35          
2006-04-15 12   15.5    85.4     997         35          
2006-04-15 18   16.0    84.8    1000         30          
2006-04-16 00   16.8    84.4    1000         30          
2006-04-16 06   17.3    83.6    1002         25          
2006-04-16 12   17.7    82.7    1002         25          
Winds are 1-min average.

Tropical cyclone tracks developed by Michael Bath using data from the Joint Typhoon Warning Centre Best Tracks and Google Maps.


[Australian Severe Weather index] [Copyright Notice] [Email Contacts] [Search This Site] [Privacy Policy]
Document: tropical_cyclone_elia.htm Updated: 28 June 2017